• Join FlightAware (Why Join?)
  • Login
  • US Flag 
02:25AM EDT


 

Airport Tracker/Info


-or-


 

Live Flight TrackerFlight Track Log ✈ SWA920 ✈ 30-Apr-2013 ✈ KBWI - KBOS

Flight Track Log - Related Links

Times and Time Zones

All times are in EDT time to prevent confusion due to time zone crossing. See the SWA920 flight status page for this flight to view local times or setup timezone preferences in your user account.

Time Position Orientation Groundspeed Altitude Reporting Facility
EDT Latitude Longitude Course Direction KTS MPH feet Rate Location/Type
09:59PM 39.1325 -76.5522 103° East 198 228 5,900  Level Washington Center
10:00PM 39.1353 -76.4558 88° East 235 270 9,900 3,360 Climbing Washington Center
10:01PM 39.1422 -76.3464 85° East 266 306 12,600 3,180 Climbing Washington Center
10:02PM 39.1494 -76.2178 86° East 310 357 16,300 3,120 Climbing Washington Center
10:03PM 39.1686 -76.0869 79° East 351 404 19,000 2,760 Climbing Washington Center
10:04PM 39.1858 -75.9503 81° East 372 428 21,800 2,100 Climbing Washington Center
10:05PM 39.2342 -75.8275 63° Northeast 379 436 23,200 1,920 Climbing Washington Center
10:06PM 39.3114 -75.7283 45° Northeast 373 429 25,700 1,860 Climbing Washington Center
10:07PM 39.4072 -75.6481 33° Northeast 383 441 26,900 900 Climbing Washington Center
10:08PM 39.5031 -75.5781 29° Northeast 388 447 27,600 1,680 Climbing Washington Center
10:10PM 39.6811 -75.3403 46° Northeast 408 470 32,400 1,260 Climbing New York Center
10:12PM 39.8211 -75.1089 52° Northeast 426 490 33,000 180 Climbing New York Center
10:13PM 39.8964 -74.9917 50° Northeast 426 490 33,000  Level New York Center
10:14PM 39.9803 -74.8586 51° Northeast 432 497 33,000  Level New York Center
10:15PM 40.0442 -74.7539 51° Northeast 427 491 33,000  Level New York Center
10:16PM 40.1278 -74.6203 51° Northeast 427 491 33,000  Level New York Center
10:18PM 40.2706 -74.3917 51° Northeast 432 497 33,000  Level New York Center
10:19PM 40.3472 -74.2731 50° Northeast 432 497 33,000  Level New York Center
10:20PM 40.4214 -74.1542 51° Northeast 427 491 33,000 -240 Level New York Center
10:22PM 40.5883 -73.8911 50° Northeast 451 519 32,300 -900 Descending Boston Center
10:23PM 40.6608 -73.7669 52° Northeast 440 506 30,300 -2,220 Descending Boston Center
10:24PM 40.7308 -73.6425 53° Northeast 434 499 27,900 -2,400 Descending Boston Center
10:25PM 40.8069 -73.5342 47° Northeast 422 486 25,600 -1,980 Descending Boston Center
10:26PM 40.8706 -73.4172 54° Northeast 408 470 24,000 -1,200 Descending Boston Center
10:27PM 40.9444 -73.3167 46° Northeast 392 451 23,200 -540 Descending Boston Center
10:28PM 41.0181 -73.2103 47° Northeast 386 444 23,000 -120 Descending Boston Center
10:29PM 41.0897 -73.1039 48° Northeast 381 438 23,000  Level Boston Center
10:30PM 41.1528 -72.9886 54° Northeast 381 438 23,000  Level Boston Center
10:31PM 41.1992 -72.8594 64° Northeast 381 438 23,000  Level Boston Center
10:32PM 41.2475 -72.7300 64° Northeast 381 438 23,000  Level Boston Center
10:33PM 41.3042 -72.5811 63° Northeast 392 451 23,000  Level Boston Center
10:34PM 41.3522 -72.4511 64° Northeast 392 451 23,000 -60 Level Boston Center
10:35PM 41.4000 -72.3211 64° Northeast 392 451 22,900 -540 Descending Boston Center
10:36PM 41.4436 -72.2075 63° Northeast 385 443 22,000 -960 Descending Boston Center
10:37PM 41.4892 -72.0800 64° Northeast 385 443 21,000 -1,560 Descending Boston Center
10:38PM 41.5406 -71.9436 63° Northeast 385 443 18,900 -1,800 Descending Boston Center
10:39PM 41.5839 -71.8239 64° Northeast 370 426 17,400 -1,980 Descending Boston Center
10:40PM 41.6247 -71.7097 64° Northeast 348 400 15,000 -2,160 Descending Boston Center
10:41PM 41.6636 -71.5953 66° East 338 389 13,100 -1,800 Descending Boston Center
10:42PM 41.6942 -71.5172 62° Northeast 338 389 11,500 -1,080 Descending Boston Center
10:43PM 41.7411 -71.3994 62° Northeast 302 348 11,000 -300 Descending Boston Center
10:44PM 41.7903 -71.3069 54° Northeast 279 321 11,000 -180 Level Boston Center
10:45PM 41.8461 -71.2558 34° Northeast 262 302 10,700 -1,080 Descending Boston Center
10:46PM 41.9250 -71.2181 20° North 262 302 8,900 -1,260 Descending Boston Center
10:47PM 41.9808 -71.1917 19° North 255 293 8,200 -1,020 Descending Boston Center
10:48PM 42.0450 -71.1569 22° Northeast 231 266 6,900 -1,320 Descending Boston Center
10:49PM 42.0928 -71.1364 18° North 225 259 5,600 -1,380 Descending Boston Center
10:50PM 42.1569 -71.1042 20° North 206 237 4,200 -1,320 Descending Boston Center
10:51PM 42.2167 -71.0833 14° North 195 224 3,100 -960 Descending KA90
10:53PM 42.3000 -71.0367 22° Northeast 186 214 1,400 -1,020 Descending Boston Center
10:53PM 42.3167 -71.0333 North 165 190 800 -1,140 Descending KA90
10:54PM 42.3500 -71.0167 20° North 148 170 300 -720 Descending KA90
10:57PM 42.3500 -71.0000 North  Level FlightAware Approximate